Northglenn, CO (80233)

8:56 PM MDT on April 25, 2015 (GMT -0600)
Woodglen | | Change Station
CLOSE
Current Station
Personal Weather Station
Location: Thornton, CO
Elevation: 5226 ft
Nearby Weather Stations

Elev 5226 ft 39.90 °N, 104.94 °W | Updated 16 seconds ago

Mostly Cloudy
Mostly Cloudy
55.9 °F
Feels Like 55.9 °F
N
1.1
Wind Variable Wind from ENE
Gusts 2.5 mph

Today
High -- | Low -- °F
--% Chance of Precip.
Yesterday
High -- | Low -- °F
Precip. -- in
6:08 AM 7:48 PM
Waxing Crescent, 51% visible
Pressure 29.80 in
Visibility 30.0 miles
Clouds Mostly Cloudy 9000 ft
Dew Point 39 °F
Humidity 52%
Rainfall 0.00 in
Snow Depth Not available.
UV 0.0 out of 12
Pollen 10.50 out of 12
Air Quality Not available.
Flu Activity Sporadic
METAR KBJC 260245Z 00000KT 30SM BKN090 14/02 A2980

More Conditions Fewer Conditions

Pressure 29.80 in
Visibility 30.0 miles
Clouds Mostly Cloudy 9000 ft
Dew Point 39 °F
Humidity 52%
Rainfall 0.00 in
Snow Depth Not available.
UV 0.0 out of 12
Pollen 10.50 out of 12
Air Quality Not available.
Flu Activity Sporadic
METAR KBJC 260245Z 00000KT 30SM BKN090 14/02 A2980

More Conditions Fewer Conditions

Nowcast | as of 7:03 PM MDT on April 25, 2015

Scattered rain showers will develop along the foothills by 10 PM...with only isolated showers further east. A thunderstorm is also possible. Some of the showers may produce wind gusts to 30 mph and brief heavy rain.

×

10-Day Weather Forecast

Almanac

Astronomy

Apr. 25, 2015 Rise Set
Actual Time
Civil Twilight
Nautical Twilight
Astronomical Twilight
Moon
Length of Visible Light
Length of Day
Tomorrow will be .
, % of the Moon is Illuminated

Today's Extremes

State Highs State Lows

Community

WunderPhotos

Upload Photos

1,816,909 photos uploaded!

WunderBlogs® & News

Nearby

Air Quality

  Air Quality AQ Index Pollutant
Not available.

Snow Depth

Station Depth Elevation

Earthquake Activity

City Distance Mag. Time & Date
Minimum magnitude displayed is 2.5.

Coastal Water Temperatures

Place Temperature

Stations

Nearby Weather Stations

Station Location Temp. Windchill Dew Point Humidity Wind Precip. Elev Updated Type